sensor_id;sensor_type;location;lat;lon;timestamp;temperature;humidity
14531;DHT22;7352;50.866;4.366;2022-12-18T00:00:44;-2.30;99.90
14531;DHT22;7352;50.866;4.366;2022-12-18T00:03:12;-2.20;99.90
14531;DHT22;7352;50.866;4.366;2022-12-18T00:05:46;-2.30;99.90
14531;DHT22;7352;50.866;4.366;2022-12-18T00:08:13;-2.10;99.90
14531;DHT22;7352;50.866;4.366;2022-12-18T00:10:40;-2.10;99.90
14531;DHT22;7352;50.866;4.366;2022-12-18T00:13:07;-2.00;99.90
14531;DHT22;7352;50.866;4.366;2022-12-18T00:15:37;-2.10;99.90
14531;DHT22;7352;50.866;4.366;2022-12-18T00:18:04;-2.20;99.90
14531;DHT22;7352;50.866;4.366;2022-12-18T00:20:35;-2.40;99.90
14531;DHT22;7352;50.866;4.366;2022-12-18T00:23:02;-2.50;99.90
14531;DHT22;7352;50.866;4.366;2022-12-18T00:25:29;-2.40;99.90
14531;DHT22;7352;50.866;4.366;2022-12-18T00:27:55;-2.40;99.90
14531;DHT22;7352;50.866;4.366;2022-12-18T00:30:22;-2.50;99.90
14531;DHT22;7352;50.866;4.366;2022-12-18T00:32:51;-2.30;99.90
14531;DHT22;7352;50.866;4.366;2022-12-18T00:35:18;-2.00;99.90
14531;DHT22;7352;50.866;4.366;2022-12-18T00:37:44;-2.00;99.90
14531;DHT22;7352;50.866;4.366;2022-12-18T00:40:12;-2.20;99.90
14531;DHT22;7352;50.866;4.366;2022-12-18T00:42:39;-2.30;99.90
14531;DHT22;7352;50.866;4.366;2022-12-18T00:45:23;-2.30;99.90
14531;DHT22;7352;50.866;4.366;2022-12-18T00:47:52;-2.50;99.90
14531;DHT22;7352;50.866;4.366;2022-12-18T00:50:19;-2.40;99.90
14531;DHT22;7352;50.866;4.366;2022-12-18T00:52:46;-2.50;99.90
14531;DHT22;7352;50.866;4.366;2022-12-18T00:55:13;-2.40;99.90
14531;DHT22;7352;50.866;4.366;2022-12-18T00:57:40;-2.40;99.90
14531;DHT22;7352;50.866;4.366;2022-12-18T01:00:10;-2.40;99.90
14531;DHT22;7352;50.866;4.366;2022-12-18T01:02:37;-2.40;99.90
14531;DHT22;7352;50.866;4.366;2022-12-18T01:05:06;-2.50;99.90
14531;DHT22;7352;50.866;4.366;2022-12-18T01:07:33;-2.30;99.90
14531;DHT22;7352;50.866;4.366;2022-12-18T01:10:01;-2.30;99.90
14531;DHT22;7352;50.866;4.366;2022-12-18T01:12:28;-2.50;99.90
14531;DHT22;7352;50.866;4.366;2022-12-18T01:14:55;-2.30;99.90
14531;DHT22;7352;50.866;4.366;2022-12-18T01:17:22;-2.40;99.90
14531;DHT22;7352;50.866;4.366;2022-12-18T01:19:50;-2.40;99.90
14531;DHT22;7352;50.866;4.366;2022-12-18T01:22:18;-2.50;99.90
14531;DHT22;7352;50.866;4.366;2022-12-18T01:24:49;-2.70;99.90
14531;DHT22;7352;50.866;4.366;2022-12-18T01:27:16;-2.80;99.90
14531;DHT22;7352;50.866;4.366;2022-12-18T01:29:43;-2.70;99.90
14531;DHT22;7352;50.866;4.366;2022-12-18T01:32:11;-2.50;99.90
14531;DHT22;7352;50.866;4.366;2022-12-18T01:34:44;-2.50;99.90
14531;DHT22;7352;50.866;4.366;2022-12-18T01:37:11;-2.50;99.90
14531;DHT22;7352;50.866;4.366;2022-12-18T01:39:40;-2.60;99.90
14531;DHT22;7352;50.866;4.366;2022-12-18T01:42:12;-2.70;99.90
14531;DHT22;7352;50.866;4.366;2022-12-18T01:45:02;-2.70;99.90
14531;DHT22;7352;50.866;4.366;2022-12-18T01:47:36;-2.70;99.90
14531;DHT22;7352;50.866;4.366;2022-12-18T01:50:07;-2.80;99.90
14531;DHT22;7352;50.866;4.366;2022-12-18T01:52:36;-2.90;99.90
14531;DHT22;7352;50.866;4.366;2022-12-18T01:55:08;-2.80;99.90
14531;DHT22;7352;50.866;4.366;2022-12-18T01:57:36;-2.80;99.90
14531;DHT22;7352;50.866;4.366;2022-12-18T02:00:06;-2.90;99.90
14531;DHT22;7352;50.866;4.366;2022-12-18T02:02:34;-2.70;99.90
14531;DHT22;7352;50.866;4.366;2022-12-18T02:05:02;-2.80;99.90
14531;DHT22;7352;50.866;4.366;2022-12-18T02:07:36;-2.90;99.90
14531;DHT22;7352;50.866;4.366;2022-12-18T02:10:12;-3.00;99.90
14531;DHT22;7352;50.866;4.366;2022-12-18T02:12:44;-3.00;99.90
14531;DHT22;7352;50.866;4.366;2022-12-18T02:15:17;-2.70;99.90
14531;DHT22;7352;50.866;4.366;2022-12-18T02:17:50;-2.80;99.90
14531;DHT22;7352;50.866;4.366;2022-12-18T02:20:23;-2.80;99.90
14531;DHT22;7352;50.866;4.366;2022-12-18T02:23:06;-2.80;99.90
14531;DHT22;7352;50.866;4.366;2022-12-18T02:26:04;-2.80;99.90
14531;DHT22;7352;50.866;4.366;2022-12-18T02:28:35;-2.70;99.90
14531;DHT22;7352;50.866;4.366;2022-12-18T02:31:11;-2.60;99.90
14531;DHT22;7352;50.866;4.366;2022-12-18T02:33:40;-2.70;99.90
14531;DHT22;7352;50.866;4.366;2022-12-18T02:36:09;-2.50;99.90
14531;DHT22;7352;50.866;4.366;2022-12-18T02:38:38;-2.80;99.90
14531;DHT22;7352;50.866;4.366;2022-12-18T02:41:07;-3.10;99.90
14531;DHT22;7352;50.866;4.366;2022-12-18T02:43:35;-3.00;99.90
14531;DHT22;7352;50.866;4.366;2022-12-18T02:46:25;-3.10;99.90
14531;DHT22;7352;50.866;4.366;2022-12-18T02:48:57;-3.20;99.90
14531;DHT22;7352;50.866;4.366;2022-12-18T02:51:31;-3.10;99.90
14531;DHT22;7352;50.866;4.366;2022-12-18T02:54:05;-3.10;99.90
14531;DHT22;7352;50.866;4.366;2022-12-18T02:56:43;-3.00;99.90
14531;DHT22;7352;50.866;4.366;2022-12-18T02:59:14;-3.10;99.90
14531;DHT22;7352;50.866;4.366;2022-12-18T03:01:50;-3.20;99.90
14531;DHT22;7352;50.866;4.366;2022-12-18T03:04:25;-3.20;99.90
14531;DHT22;7352;50.866;4.366;2022-12-18T03:06:55;-3.40;99.90
14531;DHT22;7352;50.866;4.366;2022-12-18T03:09:27;-3.30;99.90
14531;DHT22;7352;50.866;4.366;2022-12-18T03:12:02;-3.40;99.90
14531;DHT22;7352;50.866;4.366;2022-12-18T03:14:50;-3.30;99.90
14531;DHT22;7352;50.866;4.366;2022-12-18T03:17:24;-3.20;99.90
14531;DHT22;7352;50.866;4.366;2022-12-18T03:19:54;-3.20;99.90
14531;DHT22;7352;50.866;4.366;2022-12-18T03:22:24;-3.20;99.90
14531;DHT22;7352;50.866;4.366;2022-12-18T03:24:54;-3.10;99.90
14531;DHT22;7352;50.866;4.366;2022-12-18T03:27:25;-3.20;99.90
14531;DHT22;7352;50.866;4.366;2022-12-18T03:30:01;-3.10;99.90
14531;DHT22;7352;50.866;4.366;2022-12-18T03:32:38;-3.40;99.90
14531;DHT22;7352;50.866;4.366;2022-12-18T03:35:09;-3.40;99.90
14531;DHT22;7352;50.866;4.366;2022-12-18T03:37:37;-3.30;99.90
14531;DHT22;7352;50.866;4.366;2022-12-18T03:40:06;-3.30;99.90
14531;DHT22;7352;50.866;4.366;2022-12-18T03:42:41;-3.40;99.90
14531;DHT22;7352;50.866;4.366;2022-12-18T03:45:16;-3.20;99.90
14531;DHT22;7352;50.866;4.366;2022-12-18T03:47:54;-3.40;99.90
14531;DHT22;7352;50.866;4.366;2022-12-18T03:50:29;-3.40;99.90
14531;DHT22;7352;50.866;4.366;2022-12-18T03:53:09;-3.50;99.90
14531;DHT22;7352;50.866;4.366;2022-12-18T03:55:38;-3.60;99.90
14531;DHT22;7352;50.866;4.366;2022-12-18T03:58:08;-3.60;99.90
14531;DHT22;7352;50.866;4.366;2022-12-18T04:00:36;-3.50;99.90
14531;DHT22;7352;50.866;4.366;2022-12-18T04:03:04;-3.50;99.90
14531;DHT22;7352;50.866;4.366;2022-12-18T04:05:34;-3.30;99.90
14531;DHT22;7352;50.866;4.366;2022-12-18T04:08:06;-3.30;99.90
14531;DHT22;7352;50.866;4.366;2022-12-18T04:10:32;-3.30;99.90
14531;DHT22;7352;50.866;4.366;2022-12-18T04:13:00;-3.30;99.90
14531;DHT22;7352;50.866;4.366;2022-12-18T04:15:28;-3.40;99.90
14531;DHT22;7352;50.866;4.366;2022-12-18T04:17:55;-3.60;99.90
14531;DHT22;7352;50.866;4.366;2022-12-18T04:20:22;-3.40;99.90
14531;DHT22;7352;50.866;4.366;2022-12-18T04:22:50;-3.50;99.90
14531;DHT22;7352;50.866;4.366;2022-12-18T04:25:17;-3.50;99.90
14531;DHT22;7352;50.866;4.366;2022-12-18T04:27:44;-3.40;99.90
14531;DHT22;7352;50.866;4.366;2022-12-18T04:30:11;-3.20;99.90
14531;DHT22;7352;50.866;4.366;2022-12-18T04:32:39;-3.30;99.90
14531;DHT22;7352;50.866;4.366;2022-12-18T04:35:07;-3.30;99.90
14531;DHT22;7352;50.866;4.366;2022-12-18T04:37:37;-3.30;99.90
14531;DHT22;7352;50.866;4.366;2022-12-18T04:40:05;-3.30;99.90
14531;DHT22;7352;50.866;4.366;2022-12-18T04:42:32;-3.40;99.90
14531;DHT22;7352;50.866;4.366;2022-12-18T04:44:58;-3.30;99.90
14531;DHT22;7352;50.866;4.366;2022-12-18T04:47:25;-3.40;99.90
14531;DHT22;7352;50.866;4.366;2022-12-18T04:49:54;-3.30;99.90
14531;DHT22;7352;50.866;4.366;2022-12-18T04:52:23;-3.30;99.90
14531;DHT22;7352;50.866;4.366;2022-12-18T04:54:50;-3.30;99.90
14531;DHT22;7352;50.866;4.366;2022-12-18T04:57:17;-3.30;99.90
14531;DHT22;7352;50.866;4.366;2022-12-18T04:59:44;-3.30;99.90
14531;DHT22;7352;50.866;4.366;2022-12-18T05:02:11;-3.40;99.90
14531;DHT22;7352;50.866;4.366;2022-12-18T05:04:39;-3.30;99.90
14531;DHT22;7352;50.866;4.366;2022-12-18T05:07:07;-3.30;99.90
14531;DHT22;7352;50.866;4.366;2022-12-18T05:09:34;-3.30;99.90
14531;DHT22;7352;50.866;4.366;2022-12-18T05:12:01;-3.30;99.90
14531;DHT22;7352;50.866;4.366;2022-12-18T05:14:28;-3.30;99.90
14531;DHT22;7352;50.866;4.366;2022-12-18T05:16:55;-3.30;99.90
14531;DHT22;7352;50.866;4.366;2022-12-18T05:19:22;-3.40;99.90
14531;DHT22;7352;50.866;4.366;2022-12-18T05:21:49;-3.50;99.90
14531;DHT22;7352;50.866;4.366;2022-12-18T05:24:17;-3.50;99.90
14531;DHT22;7352;50.866;4.366;2022-12-18T05:26:45;-3.50;99.90
14531;DHT22;7352;50.866;4.366;2022-12-18T05:29:12;-3.50;99.90
14531;DHT22;7352;50.866;4.366;2022-12-18T05:31:39;-3.50;99.90
14531;DHT22;7352;50.866;4.366;2022-12-18T05:34:06;-3.40;99.90
14531;DHT22;7352;50.866;4.366;2022-12-18T05:36:33;-3.40;99.90
14531;DHT22;7352;50.866;4.366;2022-12-18T05:39:00;-3.50;99.90
14531;DHT22;7352;50.866;4.366;2022-12-18T05:41:28;-3.40;99.90
14531;DHT22;7352;50.866;4.366;2022-12-18T05:43:55;-3.30;99.90
14531;DHT22;7352;50.866;4.366;2022-12-18T05:46:22;-3.50;99.90
14531;DHT22;7352;50.866;4.366;2022-12-18T05:48:50;-3.30;99.90
14531;DHT22;7352;50.866;4.366;2022-12-18T05:51:19;-3.50;99.90
14531;DHT22;7352;50.866;4.366;2022-12-18T05:53:47;-3.50;99.90
14531;DHT22;7352;50.866;4.366;2022-12-18T05:56:16;-3.50;99.90
14531;DHT22;7352;50.866;4.366;2022-12-18T05:58:45;-3.70;99.90
14531;DHT22;7352;50.866;4.366;2022-12-18T06:01:14;-3.50;99.90
14531;DHT22;7352;50.866;4.366;2022-12-18T06:03:41;-3.60;99.90
14531;DHT22;7352;50.866;4.366;2022-12-18T06:06:15;-3.60;99.90
14531;DHT22;7352;50.866;4.366;2022-12-18T06:08:43;-3.60;99.90
14531;DHT22;7352;50.866;4.366;2022-12-18T06:11:10;-3.40;99.90
14531;DHT22;7352;50.866;4.366;2022-12-18T06:13:38;-3.40;99.90
14531;DHT22;7352;50.866;4.366;2022-12-18T06:16:09;-3.40;99.90
14531;DHT22;7352;50.866;4.366;2022-12-18T06:18:36;-3.40;99.90
14531;DHT22;7352;50.866;4.366;2022-12-18T06:21:03;-3.30;99.90
14531;DHT22;7352;50.866;4.366;2022-12-18T06:23:30;-3.20;99.90
14531;DHT22;7352;50.866;4.366;2022-12-18T06:25:57;-3.30;99.90
14531;DHT22;7352;50.866;4.366;2022-12-18T06:28:24;-3.30;99.90
14531;DHT22;7352;50.866;4.366;2022-12-18T06:30:51;-3.40;99.90
14531;DHT22;7352;50.866;4.366;2022-12-18T06:33:20;-3.30;99.90
14531;DHT22;7352;50.866;4.366;2022-12-18T06:35:50;-3.30;99.90
14531;DHT22;7352;50.866;4.366;2022-12-18T06:38:18;-3.50;99.90
14531;DHT22;7352;50.866;4.366;2022-12-18T06:40:45;-3.60;99.90
14531;DHT22;7352;50.866;4.366;2022-12-18T06:43:18;-3.60;99.90
14531;DHT22;7352;50.866;4.366;2022-12-18T06:45:45;-3.50;99.90
14531;DHT22;7352;50.866;4.366;2022-12-18T06:48:20;-3.50;99.90
14531;DHT22;7352;50.866;4.366;2022-12-18T06:50:47;-3.40;99.90
14531;DHT22;7352;50.866;4.366;2022-12-18T06:53:14;-3.30;99.90
14531;DHT22;7352;50.866;4.366;2022-12-18T06:55:43;-3.40;99.90
14531;DHT22;7352;50.866;4.366;2022-12-18T06:58:12;-3.40;99.90
14531;DHT22;7352;50.866;4.366;2022-12-18T07:00:39;-3.30;99.90
14531;DHT22;7352;50.866;4.366;2022-12-18T07:03:06;-3.40;99.90
14531;DHT22;7352;50.866;4.366;2022-12-18T07:05:34;-3.20;99.90
14531;DHT22;7352;50.866;4.366;2022-12-18T07:08:06;-3.10;99.90
14531;DHT22;7352;50.866;4.366;2022-12-18T07:10:33;-2.90;99.90
14531;DHT22;7352;50.866;4.366;2022-12-18T07:13:00;-3.10;99.90
14531;DHT22;7352;50.866;4.366;2022-12-18T07:15:28;-3.10;99.90
14531;DHT22;7352;50.866;4.366;2022-12-18T07:17:56;-3.30;99.90
14531;DHT22;7352;50.866;4.366;2022-12-18T07:20:22;-3.40;99.90
14531;DHT22;7352;50.866;4.366;2022-12-18T07:22:52;-3.30;99.90
14531;DHT22;7352;50.866;4.366;2022-12-18T07:25:19;-3.30;99.90
14531;DHT22;7352;50.866;4.366;2022-12-18T07:27:46;-3.40;99.90
14531;DHT22;7352;50.866;4.366;2022-12-18T07:30:13;-3.30;99.90
14531;DHT22;7352;50.866;4.366;2022-12-18T07:32:40;-3.30;99.90
14531;DHT22;7352;50.866;4.366;2022-12-18T07:35:07;-3.50;99.90
14531;DHT22;7352;50.866;4.366;2022-12-18T07:37:34;-3.70;99.90
14531;DHT22;7352;50.866;4.366;2022-12-18T07:40:03;-3.70;99.90
14531;DHT22;7352;50.866;4.366;2022-12-18T07:42:30;-3.70;99.90
14531;DHT22;7352;50.866;4.366;2022-12-18T07:44:58;-3.70;99.90
14531;DHT22;7352;50.866;4.366;2022-12-18T07:47:25;-3.60;99.90
14531;DHT22;7352;50.866;4.366;2022-12-18T07:49:52;-3.40;99.90
14531;DHT22;7352;50.866;4.366;2022-12-18T07:52:19;-3.50;99.90
14531;DHT22;7352;50.866;4.366;2022-12-18T07:54:46;-3.40;99.90
14531;DHT22;7352;50.866;4.366;2022-12-18T07:57:16;-3.50;99.90
14531;DHT22;7352;50.866;4.366;2022-12-18T07:59:43;-3.60;99.90
14531;DHT22;7352;50.866;4.366;2022-12-18T08:02:10;-3.60;99.90
14531;DHT22;7352;50.866;4.366;2022-12-18T08:04:37;-3.70;99.90
14531;DHT22;7352;50.866;4.366;2022-12-18T08:07:05;-3.60;99.90
14531;DHT22;7352;50.866;4.366;2022-12-18T08:09:33;-3.50;99.90
14531;DHT22;7352;50.866;4.366;2022-12-18T08:12:01;-3.30;99.90
14531;DHT22;7352;50.866;4.366;2022-12-18T08:14:29;-3.40;99.90
14531;DHT22;7352;50.866;4.366;2022-12-18T08:16:57;-3.40;99.90
14531;DHT22;7352;50.866;4.366;2022-12-18T08:19:24;-3.40;99.90
14531;DHT22;7352;50.866;4.366;2022-12-18T08:21:51;-3.50;99.90
14531;DHT22;7352;50.866;4.366;2022-12-18T08:24:18;-3.30;99.90
14531;DHT22;7352;50.866;4.366;2022-12-18T08:26:45;-3.20;99.90
14531;DHT22;7352;50.866;4.366;2022-12-18T08:29:12;-3.10;99.90
14531;DHT22;7352;50.866;4.366;2022-12-18T08:31:40;-3.20;99.90
14531;DHT22;7352;50.866;4.366;2022-12-18T08:34:08;-3.20;99.90
14531;DHT22;7352;50.866;4.366;2022-12-18T08:36:35;-3.10;99.90
14531;DHT22;7352;50.866;4.366;2022-12-18T08:39:02;-3.00;99.90
14531;DHT22;7352;50.866;4.366;2022-12-18T08:41:29;-2.90;99.90
14531;DHT22;7352;50.866;4.366;2022-12-18T08:43:57;-2.70;99.90
14531;DHT22;7352;50.866;4.366;2022-12-18T08:46:43;-2.60;99.90
14531;DHT22;7352;50.866;4.366;2022-12-18T08:49:11;-2.50;99.90
14531;DHT22;7352;50.866;4.366;2022-12-18T08:51:38;-2.40;99.90
14531;DHT22;7352;50.866;4.366;2022-12-18T08:54:06;-2.30;99.90
14531;DHT22;7352;50.866;4.366;2022-12-18T08:56:33;-2.20;99.90
14531;DHT22;7352;50.866;4.366;2022-12-18T08:59:00;-2.00;99.90
14531;DHT22;7352;50.866;4.366;2022-12-18T09:01:27;-2.00;99.90
14531;DHT22;7352;50.866;4.366;2022-12-18T09:03:56;-1.90;99.90
14531;DHT22;7352;50.866;4.366;2022-12-18T09:06:23;-1.60;99.90
14531;DHT22;7352;50.866;4.366;2022-12-18T09:08:50;-1.50;99.90
14531;DHT22;7352;50.866;4.366;2022-12-18T09:11:20;-1.40;99.90
14531;DHT22;7352;50.866;4.366;2022-12-18T09:13:48;-1.20;99.90
14531;DHT22;7352;50.866;4.366;2022-12-18T09:16:15;-1.00;99.90
14531;DHT22;7352;50.866;4.366;2022-12-18T09:18:42;-0.90;99.90
14531;DHT22;7352;50.866;4.366;2022-12-18T09:21:14;-0.70;99.90
14531;DHT22;7352;50.866;4.366;2022-12-18T09:23:42;-0.70;99.90
14531;DHT22;7352;50.866;4.366;2022-12-18T09:26:09;-0.60;99.90
14531;DHT22;7352;50.866;4.366;2022-12-18T09:28:37;-0.50;99.90
14531;DHT22;7352;50.866;4.366;2022-12-18T09:31:05;-0.50;99.90
14531;DHT22;7352;50.866;4.366;2022-12-18T09:33:33;-0.40;99.90
14531;DHT22;7352;50.866;4.366;2022-12-18T09:36:02;-0.30;99.90
14531;DHT22;7352;50.866;4.366;2022-12-18T09:38:31;0.10;99.90
14531;DHT22;7352;50.866;4.366;2022-12-18T09:41:01;0.20;99.90
14531;DHT22;7352;50.866;4.366;2022-12-18T09:43:37;0.40;99.90
14531;DHT22;7352;50.866;4.366;2022-12-18T09:46:10;0.30;99.90
14531;DHT22;7352;50.866;4.366;2022-12-18T09:48:40;0.50;99.90
14531;DHT22;7352;50.866;4.366;2022-12-18T09:51:15;1.00;99.90
14531;DHT22;7352;50.866;4.366;2022-12-18T09:53:50;0.90;99.90
14531;DHT22;7352;50.866;4.366;2022-12-18T09:56:19;0.90;99.90
14531;DHT22;7352;50.866;4.366;2022-12-18T09:58:53;0.80;99.90
14531;DHT22;7352;50.866;4.366;2022-12-18T10:01:22;0.80;99.90
14531;DHT22;7352;50.866;4.366;2022-12-18T10:03:50;0.90;99.90
14531;DHT22;7352;50.866;4.366;2022-12-18T10:06:23;1.00;99.90
14531;DHT22;7352;50.866;4.366;2022-12-18T10:08:58;1.10;99.90
14531;DHT22;7352;50.866;4.366;2022-12-18T10:11:35;1.30;99.90
14531;DHT22;7352;50.866;4.366;2022-12-18T10:14:11;1.20;99.90
14531;DHT22;7352;50.866;4.366;2022-12-18T10:16:52;1.20;99.90
14531;DHT22;7352;50.866;4.366;2022-12-18T10:19:32;1.30;99.90
14531;DHT22;7352;50.866;4.366;2022-12-18T10:22:07;1.40;99.90
14531;DHT22;7352;50.866;4.366;2022-12-18T10:24:42;1.60;99.90
14531;DHT22;7352;50.866;4.366;2022-12-18T10:27:15;1.70;99.90
14531;DHT22;7352;50.866;4.366;2022-12-18T10:29:48;1.70;99.90
14531;DHT22;7352;50.866;4.366;2022-12-18T10:32:19;1.70;99.90
14531;DHT22;7352;50.866;4.366;2022-12-18T10:34:47;1.70;99.90
14531;DHT22;7352;50.866;4.366;2022-12-18T10:37:17;1.80;99.90
14531;DHT22;7352;50.866;4.366;2022-12-18T10:40:06;1.80;99.90
14531;DHT22;7352;50.866;4.366;2022-12-18T10:42:34;1.90;99.90
14531;DHT22;7352;50.866;4.366;2022-12-18T10:45:02;2.00;99.90
14531;DHT22;7352;50.866;4.366;2022-12-18T10:47:30;2.00;99.90
14531;DHT22;7352;50.866;4.366;2022-12-18T10:49:57;2.00;99.90
14531;DHT22;7352;50.866;4.366;2022-12-18T10:52:26;2.10;99.90
14531;DHT22;7352;50.866;4.366;2022-12-18T10:54:58;2.10;99.90
14531;DHT22;7352;50.866;4.366;2022-12-18T10:57:33;2.20;99.90
14531;DHT22;7352;50.866;4.366;2022-12-18T11:00:25;2.20;99.70
14531;DHT22;7352;50.866;4.366;2022-12-18T11:02:53;2.30;99.60
14531;DHT22;7352;50.866;4.366;2022-12-18T11:05:29;2.30;99.30
14531;DHT22;7352;50.866;4.366;2022-12-18T11:07:58;2.20;99.20
14531;DHT22;7352;50.866;4.366;2022-12-18T11:10:30;2.30;99.60
14531;DHT22;7352;50.866;4.366;2022-12-18T11:13:12;2.40;99.60
14531;DHT22;7352;50.866;4.366;2022-12-18T11:15:42;2.50;99.60
14531;DHT22;7352;50.866;4.366;2022-12-18T11:18:17;2.60;98.80
14531;DHT22;7352;50.866;4.366;2022-12-18T11:20:51;2.60;98.90
14531;DHT22;7352;50.866;4.366;2022-12-18T11:23:20;2.60;98.80
14531;DHT22;7352;50.866;4.366;2022-12-18T11:25:55;2.50;99.10
14531;DHT22;7352;50.866;4.366;2022-12-18T11:28:28;2.60;98.70
14531;DHT22;7352;50.866;4.366;2022-12-18T11:34:01;2.30;99.30
14531;DHT22;7352;50.866;4.366;2022-12-18T11:36:33;2.60;99.50
14531;DHT22;7352;50.866;4.366;2022-12-18T11:39:07;2.70;99.20
14531;DHT22;7352;50.866;4.366;2022-12-18T11:41:41;2.70;99.30
14531;DHT22;7352;50.866;4.366;2022-12-18T11:44:31;2.70;99.20
14531;DHT22;7352;50.866;4.366;2022-12-18T11:47:09;2.80;98.90
14531;DHT22;7352;50.866;4.366;2022-12-18T11:49:41;2.90;98.90
14531;DHT22;7352;50.866;4.366;2022-12-18T11:52:14;2.90;98.90
14531;DHT22;7352;50.866;4.366;2022-12-18T11:54:44;2.90;98.00
14531;DHT22;7352;50.866;4.366;2022-12-18T11:57:22;2.90;97.00
14531;DHT22;7352;50.866;4.366;2022-12-18T11:59:57;3.00;96.80
14531;DHT22;7352;50.866;4.366;2022-12-18T12:02:55;2.90;96.50
14531;DHT22;7352;50.866;4.366;2022-12-18T12:05:39;2.90;96.40
14531;DHT22;7352;50.866;4.366;2022-12-18T12:08:15;2.90;96.10
14531;DHT22;7352;50.866;4.366;2022-12-18T12:10:53;3.00;96.10
14531;DHT22;7352;50.866;4.366;2022-12-18T12:13:37;3.00;96.10
14531;DHT22;7352;50.866;4.366;2022-12-18T12:16:17;2.90;96.40
14531;DHT22;7352;50.866;4.366;2022-12-18T12:19:07;3.00;97.00
14531;DHT22;7352;50.866;4.366;2022-12-18T12:21:46;3.10;96.60
14531;DHT22;7352;50.866;4.366;2022-12-18T12:24:26;3.10;96.30
14531;DHT22;7352;50.866;4.366;2022-12-18T12:27:06;3.20;96.20
14531;DHT22;7352;50.866;4.366;2022-12-18T12:29:54;3.30;96.20
14531;DHT22;7352;50.866;4.366;2022-12-18T12:32:33;3.40;96.30
14531;DHT22;7352;50.866;4.366;2022-12-18T12:35:15;3.20;96.30
14531;DHT22;7352;50.866;4.366;2022-12-18T12:37:49;3.40;96.00
14531;DHT22;7352;50.866;4.366;2022-12-18T12:40:26;3.30;95.70
14531;DHT22;7352;50.866;4.366;2022-12-18T12:42:56;3.20;95.80
14531;DHT22;7352;50.866;4.366;2022-12-18T12:45:45;3.10;95.70
14531;DHT22;7352;50.866;4.366;2022-12-18T12:48:28;3.20;95.70
14531;DHT22;7352;50.866;4.366;2022-12-18T12:50:59;3.00;96.00
14531;DHT22;7352;50.866;4.366;2022-12-18T12:53:30;3.10;97.00
14531;DHT22;7352;50.866;4.366;2022-12-18T12:56:01;3.10;96.50
14531;DHT22;7352;50.866;4.366;2022-12-18T12:58:33;3.20;96.50
14531;DHT22;7352;50.866;4.366;2022-12-18T13:01:17;3.30;96.20
14531;DHT22;7352;50.866;4.366;2022-12-18T13:03:56;3.30;96.00
14531;DHT22;7352;50.866;4.366;2022-12-18T13:06:40;3.20;96.20
14531;DHT22;7352;50.866;4.366;2022-12-18T13:09:10;3.10;96.10
14531;DHT22;7352;50.866;4.366;2022-12-18T13:11:40;3.10;96.10
14531;DHT22;7352;50.866;4.366;2022-12-18T13:14:28;3.20;95.80
14531;DHT22;7352;50.866;4.366;2022-12-18T13:17:29;3.40;98.30
14531;DHT22;7352;50.866;4.366;2022-12-18T13:20:06;3.40;96.60
14531;DHT22;7352;50.866;4.366;2022-12-18T13:22:35;3.20;95.80
14531;DHT22;7352;50.866;4.366;2022-12-18T13:25:04;3.00;96.10
14531;DHT22;7352;50.866;4.366;2022-12-18T13:28:00;2.90;96.30
14531;DHT22;7352;50.866;4.366;2022-12-18T13:30:49;3.00;96.20
14531;DHT22;7352;50.866;4.366;2022-12-18T13:33:51;3.10;96.40
14531;DHT22;7352;50.866;4.366;2022-12-18T13:36:37;3.00;96.70
14531;DHT22;7352;50.866;4.366;2022-12-18T13:39:31;3.10;96.40
14531;DHT22;7352;50.866;4.366;2022-12-18T13:45:42;3.10;96.40
14531;DHT22;7352;50.866;4.366;2022-12-18T13:48:24;3.20;96.20
14531;DHT22;7352;50.866;4.366;2022-12-18T13:50:59;3.20;96.50
14531;DHT22;7352;50.866;4.366;2022-12-18T13:53:31;3.10;96.50
14531;DHT22;7352;50.866;4.366;2022-12-18T13:55:59;3.10;96.80
14531;DHT22;7352;50.866;4.366;2022-12-18T13:58:26;3.00;97.10
14531;DHT22;7352;50.866;4.366;2022-12-18T14:00:54;3.00;97.20
14531;DHT22;7352;50.866;4.366;2022-12-18T14:03:24;2.90;97.10
14531;DHT22;7352;50.866;4.366;2022-12-18T14:05:56;2.90;97.10
14531;DHT22;7352;50.866;4.366;2022-12-18T14:08:34;2.80;97.40
14531;DHT22;7352;50.866;4.366;2022-12-18T14:11:06;2.80;97.60
14531;DHT22;7352;50.866;4.366;2022-12-18T14:13:37;2.80;97.80
14531;DHT22;7352;50.866;4.366;2022-12-18T14:16:06;2.70;97.90
14531;DHT22;7352;50.866;4.366;2022-12-18T14:18:41;2.90;97.90
14531;DHT22;7352;50.866;4.366;2022-12-18T14:21:29;2.70;97.70
14531;DHT22;7352;50.866;4.366;2022-12-18T14:24:12;2.50;98.20
14531;DHT22;7352;50.866;4.366;2022-12-18T14:26:42;2.50;99.00
14531;DHT22;7352;50.866;4.366;2022-12-18T14:29:22;2.60;99.00
14531;DHT22;7352;50.866;4.366;2022-12-18T14:32:07;2.70;98.60
14531;DHT22;7352;50.866;4.366;2022-12-18T14:34:36;2.80;98.70
14531;DHT22;7352;50.866;4.366;2022-12-18T14:37:05;2.80;98.10
14531;DHT22;7352;50.866;4.366;2022-12-18T14:39:32;2.70;98.30
14531;DHT22;7352;50.866;4.366;2022-12-18T14:42:09;2.80;98.20
14531;DHT22;7352;50.866;4.366;2022-12-18T14:44:37;2.80;98.50
14531;DHT22;7352;50.866;4.366;2022-12-18T14:47:04;2.80;98.90
14531;DHT22;7352;50.866;4.366;2022-12-18T14:49:41;2.90;98.40
14531;DHT22;7352;50.866;4.366;2022-12-18T14:52:22;2.90;98.80
14531;DHT22;7352;50.866;4.366;2022-12-18T14:54:52;2.90;98.60
14531;DHT22;7352;50.866;4.366;2022-12-18T14:57:22;2.90;97.70
14531;DHT22;7352;50.866;4.366;2022-12-18T14:59:50;2.80;98.00
14531;DHT22;7352;50.866;4.366;2022-12-18T15:02:21;2.60;98.60
14531;DHT22;7352;50.866;4.366;2022-12-18T15:05:00;2.60;99.20
14531;DHT22;7352;50.866;4.366;2022-12-18T15:07:40;2.70;99.40
14531;DHT22;7352;50.866;4.366;2022-12-18T15:10:12;2.80;98.50
14531;DHT22;7352;50.866;4.366;2022-12-18T15:12:42;2.80;98.10
14531;DHT22;7352;50.866;4.366;2022-12-18T15:18:12;2.90;98.00
14531;DHT22;7352;50.866;4.366;2022-12-18T15:20:47;2.90;97.50
14531;DHT22;7352;50.866;4.366;2022-12-18T15:23:20;2.90;97.50
14531;DHT22;7352;50.866;4.366;2022-12-18T15:25:55;2.80;97.50
14531;DHT22;7352;50.866;4.366;2022-12-18T15:28:25;2.80;97.40
14531;DHT22;7352;50.866;4.366;2022-12-18T15:31:01;2.80;97.60
14531;DHT22;7352;50.866;4.366;2022-12-18T15:33:32;2.90;97.50
14531;DHT22;7352;50.866;4.366;2022-12-18T15:36:01;2.90;97.50
14531;DHT22;7352;50.866;4.366;2022-12-18T15:38:32;3.00;97.10
14531;DHT22;7352;50.866;4.366;2022-12-18T15:40:59;3.00;97.10
14531;DHT22;7352;50.866;4.366;2022-12-18T15:43:30;3.00;97.40
14531;DHT22;7352;50.866;4.366;2022-12-18T15:46:01;3.10;97.50
14531;DHT22;7352;50.866;4.366;2022-12-18T15:48:28;3.20;97.30
14531;DHT22;7352;50.866;4.366;2022-12-18T15:50:57;3.30;97.10
14531;DHT22;7352;50.866;4.366;2022-12-18T15:53:28;3.40;96.90
14531;DHT22;7352;50.866;4.366;2022-12-18T15:55:58;3.30;96.90
14531;DHT22;7352;50.866;4.366;2022-12-18T15:58:42;3.30;97.10
14531;DHT22;7352;50.866;4.366;2022-12-18T16:01:25;3.30;97.10
14531;DHT22;7352;50.866;4.366;2022-12-18T16:03:54;3.30;96.90
14531;DHT22;7352;50.866;4.366;2022-12-18T16:06:22;3.20;96.70
14531;DHT22;7352;50.866;4.366;2022-12-18T16:08:50;3.10;96.80
14531;DHT22;7352;50.866;4.366;2022-12-18T16:11:37;3.20;96.70
14531;DHT22;7352;50.866;4.366;2022-12-18T16:14:23;3.20;96.80
14531;DHT22;7352;50.866;4.366;2022-12-18T16:16:56;3.20;96.80
14531;DHT22;7352;50.866;4.366;2022-12-18T16:19:24;3.20;96.20
14531;DHT22;7352;50.866;4.366;2022-12-18T16:21:54;3.20;96.50
14531;DHT22;7352;50.866;4.366;2022-12-18T16:24:23;3.10;96.40
14531;DHT22;7352;50.866;4.366;2022-12-18T16:26:53;3.30;96.70
14531;DHT22;7352;50.866;4.366;2022-12-18T16:29:21;3.30;96.30